sensor_id;sensor_type;location;lat;lon;timestamp;temperature;humidity
42019;DHT22;27703;51.980;5.848;2023-07-29T00:00:26;19.40;99.90
42019;DHT22;27703;51.980;5.848;2023-07-29T00:02:53;19.30;99.90
42019;DHT22;27703;51.980;5.848;2023-07-29T00:05:18;19.30;99.90
42019;DHT22;27703;51.980;5.848;2023-07-29T00:07:44;19.30;99.90
42019;DHT22;27703;51.980;5.848;2023-07-29T00:10:10;19.30;99.90
42019;DHT22;27703;51.980;5.848;2023-07-29T00:12:35;19.30;99.90
42019;DHT22;27703;51.980;5.848;2023-07-29T00:15:01;19.30;99.90
42019;DHT22;27703;51.980;5.848;2023-07-29T00:17:26;19.20;99.90
42019;DHT22;27703;51.980;5.848;2023-07-29T00:19:52;19.20;99.90
42019;DHT22;27703;51.980;5.848;2023-07-29T00:22:17;19.20;99.90
42019;DHT22;27703;51.980;5.848;2023-07-29T00:24:43;19.10;99.90
42019;DHT22;27703;51.980;5.848;2023-07-29T00:27:08;19.20;99.90
42019;DHT22;27703;51.980;5.848;2023-07-29T00:29:34;19.10;99.90
42019;DHT22;27703;51.980;5.848;2023-07-29T00:31:59;19.10;99.90
42019;DHT22;27703;51.980;5.848;2023-07-29T00:34:25;19.00;99.90
42019;DHT22;27703;51.980;5.848;2023-07-29T00:36:50;19.00;99.90
42019;DHT22;27703;51.980;5.848;2023-07-29T00:39:16;18.90;99.90
42019;DHT22;27703;51.980;5.848;2023-07-29T00:41:41;18.90;99.90
42019;DHT22;27703;51.980;5.848;2023-07-29T00:44:07;18.90;99.90
42019;DHT22;27703;51.980;5.848;2023-07-29T00:46:34;18.80;99.90
42019;DHT22;27703;51.980;5.848;2023-07-29T00:49:01;18.80;99.90
42019;DHT22;27703;51.980;5.848;2023-07-29T00:51:27;18.70;99.90
42019;DHT22;27703;51.980;5.848;2023-07-29T00:53:53;18.70;99.90
42019;DHT22;27703;51.980;5.848;2023-07-29T00:56:18;18.70;99.90
42019;DHT22;27703;51.980;5.848;2023-07-29T00:58:44;18.70;99.90
42019;DHT22;27703;51.980;5.848;2023-07-29T01:01:09;18.60;99.90
42019;DHT22;27703;51.980;5.848;2023-07-29T01:03:35;18.60;99.90
42019;DHT22;27703;51.980;5.848;2023-07-29T01:06:41;18.70;99.90
42019;DHT22;27703;51.980;5.848;2023-07-29T01:09:43;18.70;99.90
42019;DHT22;27703;51.980;5.848;2023-07-29T01:12:19;18.70;99.90
42019;DHT22;27703;51.980;5.848;2023-07-29T01:15:11;18.70;99.90
42019;DHT22;27703;51.980;5.848;2023-07-29T01:17:52;18.70;99.90
42019;DHT22;27703;51.980;5.848;2023-07-29T01:20:20;18.80;99.90
42019;DHT22;27703;51.980;5.848;2023-07-29T01:22:46;18.80;99.90
42019;DHT22;27703;51.980;5.848;2023-07-29T01:25:13;18.90;99.90
42019;DHT22;27703;51.980;5.848;2023-07-29T01:27:40;18.90;99.90
42019;DHT22;27703;51.980;5.848;2023-07-29T01:30:06;18.90;99.90
42019;DHT22;27703;51.980;5.848;2023-07-29T01:37:55;19.00;99.90
42019;DHT22;27703;51.980;5.848;2023-07-29T01:40:24;19.00;99.90
42019;DHT22;27703;51.980;5.848;2023-07-29T01:42:52;19.00;99.90
42019;DHT22;27703;51.980;5.848;2023-07-29T01:45:18;19.00;99.90
42019;DHT22;27703;51.980;5.848;2023-07-29T01:47:43;19.10;99.90
42019;DHT22;27703;51.980;5.848;2023-07-29T01:50:09;19.00;99.90
42019;DHT22;27703;51.980;5.848;2023-07-29T01:52:35;19.10;99.90
42019;DHT22;27703;51.980;5.848;2023-07-29T01:55:01;19.10;99.90
42019;DHT22;27703;51.980;5.848;2023-07-29T01:57:27;19.10;99.90
42019;DHT22;27703;51.980;5.848;2023-07-29T01:59:52;19.10;99.90
42019;DHT22;27703;51.980;5.848;2023-07-29T02:02:18;19.10;99.90
42019;DHT22;27703;51.980;5.848;2023-07-29T02:04:44;19.10;99.90
42019;DHT22;27703;51.980;5.848;2023-07-29T02:07:10;19.10;99.90
42019;DHT22;27703;51.980;5.848;2023-07-29T02:09:36;19.10;99.90
42019;DHT22;27703;51.980;5.848;2023-07-29T02:12:01;19.10;99.90
42019;DHT22;27703;51.980;5.848;2023-07-29T02:14:28;19.10;99.90
42019;DHT22;27703;51.980;5.848;2023-07-29T02:16:53;19.10;99.90
42019;DHT22;27703;51.980;5.848;2023-07-29T02:19:19;19.10;99.90
42019;DHT22;27703;51.980;5.848;2023-07-29T02:21:44;19.10;99.90
42019;DHT22;27703;51.980;5.848;2023-07-29T02:24:10;19.10;99.90
42019;DHT22;27703;51.980;5.848;2023-07-29T02:26:36;19.10;99.90
42019;DHT22;27703;51.980;5.848;2023-07-29T02:29:01;19.10;99.90
42019;DHT22;27703;51.980;5.848;2023-07-29T02:31:27;19.00;99.90
42019;DHT22;27703;51.980;5.848;2023-07-29T02:33:52;19.00;99.90
42019;DHT22;27703;51.980;5.848;2023-07-29T02:36:18;19.00;99.90
42019;DHT22;27703;51.980;5.848;2023-07-29T02:38:44;19.00;99.90
42019;DHT22;27703;51.980;5.848;2023-07-29T02:41:10;19.00;99.90
42019;DHT22;27703;51.980;5.848;2023-07-29T02:43:37;19.00;99.90
42019;DHT22;27703;51.980;5.848;2023-07-29T02:46:03;18.90;99.90
42019;DHT22;27703;51.980;5.848;2023-07-29T02:48:29;18.90;99.90
42019;DHT22;27703;51.980;5.848;2023-07-29T02:50:55;18.80;99.90
42019;DHT22;27703;51.980;5.848;2023-07-29T02:53:22;18.80;99.90
42019;DHT22;27703;51.980;5.848;2023-07-29T02:55:48;18.80;99.90
42019;DHT22;27703;51.980;5.848;2023-07-29T02:58:14;18.70;99.90
42019;DHT22;27703;51.980;5.848;2023-07-29T03:00:40;18.70;99.90
42019;DHT22;27703;51.980;5.848;2023-07-29T03:03:09;18.80;99.90
42019;DHT22;27703;51.980;5.848;2023-07-29T03:05:35;18.80;99.90
42019;DHT22;27703;51.980;5.848;2023-07-29T03:08:00;18.80;99.90
42019;DHT22;27703;51.980;5.848;2023-07-29T03:10:26;18.80;99.90
42019;DHT22;27703;51.980;5.848;2023-07-29T03:12:54;18.70;99.90
42019;DHT22;27703;51.980;5.848;2023-07-29T03:15:23;18.70;99.90
42019;DHT22;27703;51.980;5.848;2023-07-29T03:17:50;18.70;99.90
42019;DHT22;27703;51.980;5.848;2023-07-29T03:20:16;18.70;99.90
42019;DHT22;27703;51.980;5.848;2023-07-29T03:22:43;18.60;99.90
42019;DHT22;27703;51.980;5.848;2023-07-29T03:25:09;18.60;99.90
42019;DHT22;27703;51.980;5.848;2023-07-29T03:27:34;18.60;99.90
42019;DHT22;27703;51.980;5.848;2023-07-29T03:30:03;18.60;99.90
42019;DHT22;27703;51.980;5.848;2023-07-29T03:32:28;18.60;99.90
42019;DHT22;27703;51.980;5.848;2023-07-29T03:34:54;18.60;99.90
42019;DHT22;27703;51.980;5.848;2023-07-29T03:37:20;18.60;99.90
42019;DHT22;27703;51.980;5.848;2023-07-29T03:39:46;18.50;99.90
42019;DHT22;27703;51.980;5.848;2023-07-29T03:42:12;18.50;99.90
42019;DHT22;27703;51.980;5.848;2023-07-29T03:44:38;18.40;99.90
42019;DHT22;27703;51.980;5.848;2023-07-29T03:47:05;18.40;99.90
42019;DHT22;27703;51.980;5.848;2023-07-29T03:49:31;18.40;99.90
42019;DHT22;27703;51.980;5.848;2023-07-29T03:51:57;18.40;99.90
42019;DHT22;27703;51.980;5.848;2023-07-29T03:54:22;18.40;99.90
42019;DHT22;27703;51.980;5.848;2023-07-29T03:56:48;18.40;99.90
42019;DHT22;27703;51.980;5.848;2023-07-29T03:59:14;18.40;99.90
42019;DHT22;27703;51.980;5.848;2023-07-29T04:01:39;18.30;99.90
42019;DHT22;27703;51.980;5.848;2023-07-29T04:04:05;18.30;99.90
42019;DHT22;27703;51.980;5.848;2023-07-29T04:06:30;18.20;99.90
42019;DHT22;27703;51.980;5.848;2023-07-29T04:08:57;18.20;99.90
42019;DHT22;27703;51.980;5.848;2023-07-29T04:11:23;18.20;99.90
42019;DHT22;27703;51.980;5.848;2023-07-29T04:13:49;18.30;99.90
42019;DHT22;27703;51.980;5.848;2023-07-29T04:16:15;18.20;99.90
42019;DHT22;27703;51.980;5.848;2023-07-29T04:18:42;18.20;99.90
42019;DHT22;27703;51.980;5.848;2023-07-29T04:21:07;18.20;99.90
42019;DHT22;27703;51.980;5.848;2023-07-29T04:23:33;18.10;99.90
42019;DHT22;27703;51.980;5.848;2023-07-29T04:25:58;18.10;99.90
42019;DHT22;27703;51.980;5.848;2023-07-29T04:28:24;18.10;99.90
42019;DHT22;27703;51.980;5.848;2023-07-29T04:30:50;18.00;99.90
42019;DHT22;27703;51.980;5.848;2023-07-29T04:33:15;18.00;99.90
42019;DHT22;27703;51.980;5.848;2023-07-29T04:35:41;18.00;99.90
42019;DHT22;27703;51.980;5.848;2023-07-29T04:38:06;18.00;99.90
42019;DHT22;27703;51.980;5.848;2023-07-29T04:40:35;18.00;99.90
42019;DHT22;27703;51.980;5.848;2023-07-29T04:43:01;18.00;99.90
42019;DHT22;27703;51.980;5.848;2023-07-29T04:45:30;18.00;99.90
42019;DHT22;27703;51.980;5.848;2023-07-29T04:47:56;18.00;99.90
42019;DHT22;27703;51.980;5.848;2023-07-29T04:50:22;17.90;99.90
42019;DHT22;27703;51.980;5.848;2023-07-29T04:52:47;18.00;99.90
42019;DHT22;27703;51.980;5.848;2023-07-29T04:55:13;18.00;99.90
42019;DHT22;27703;51.980;5.848;2023-07-29T04:57:38;18.00;99.90
42019;DHT22;27703;51.980;5.848;2023-07-29T05:00:04;17.90;99.90
42019;DHT22;27703;51.980;5.848;2023-07-29T05:02:30;17.80;99.90
42019;DHT22;27703;51.980;5.848;2023-07-29T05:04:55;17.80;99.90
42019;DHT22;27703;51.980;5.848;2023-07-29T05:07:21;17.80;99.90
42019;DHT22;27703;51.980;5.848;2023-07-29T05:09:47;17.80;99.90
42019;DHT22;27703;51.980;5.848;2023-07-29T05:12:13;17.80;99.90
42019;DHT22;27703;51.980;5.848;2023-07-29T05:14:38;17.80;99.90
42019;DHT22;27703;51.980;5.848;2023-07-29T05:17:04;17.70;99.90
42019;DHT22;27703;51.980;5.848;2023-07-29T05:19:30;17.80;99.90
42019;DHT22;27703;51.980;5.848;2023-07-29T05:21:56;17.80;99.90
42019;DHT22;27703;51.980;5.848;2023-07-29T05:24:23;17.80;99.90
42019;DHT22;27703;51.980;5.848;2023-07-29T05:26:49;17.80;99.90
42019;DHT22;27703;51.980;5.848;2023-07-29T05:29:14;17.80;99.90
42019;DHT22;27703;51.980;5.848;2023-07-29T05:31:40;17.80;99.90
42019;DHT22;27703;51.980;5.848;2023-07-29T05:34:05;17.80;99.90
42019;DHT22;27703;51.980;5.848;2023-07-29T05:36:31;17.80;99.90
42019;DHT22;27703;51.980;5.848;2023-07-29T05:38:57;17.80;99.90
42019;DHT22;27703;51.980;5.848;2023-07-29T05:41:22;17.80;99.90
42019;DHT22;27703;51.980;5.848;2023-07-29T05:43:48;17.80;99.90
42019;DHT22;27703;51.980;5.848;2023-07-29T05:46:13;17.80;99.90
42019;DHT22;27703;51.980;5.848;2023-07-29T05:48:39;17.80;99.90
42019;DHT22;27703;51.980;5.848;2023-07-29T05:51:05;17.80;99.90
42019;DHT22;27703;51.980;5.848;2023-07-29T05:53:33;17.80;99.90
42019;DHT22;27703;51.980;5.848;2023-07-29T05:55:58;17.80;99.90
42019;DHT22;27703;51.980;5.848;2023-07-29T05:58:24;17.80;99.90
42019;DHT22;27703;51.980;5.848;2023-07-29T06:00:50;17.80;99.90
42019;DHT22;27703;51.980;5.848;2023-07-29T06:03:15;17.80;99.90
42019;DHT22;27703;51.980;5.848;2023-07-29T06:05:41;17.90;99.90
42019;DHT22;27703;51.980;5.848;2023-07-29T06:08:06;17.90;99.90
42019;DHT22;27703;51.980;5.848;2023-07-29T06:10:34;17.90;99.90
42019;DHT22;27703;51.980;5.848;2023-07-29T06:12:59;17.90;99.90
42019;DHT22;27703;51.980;5.848;2023-07-29T06:15:25;17.90;99.90
42019;DHT22;27703;51.980;5.848;2023-07-29T06:17:50;17.90;99.90
42019;DHT22;27703;51.980;5.848;2023-07-29T06:20:16;18.00;99.90
42019;DHT22;27703;51.980;5.848;2023-07-29T06:22:42;18.00;99.90
42019;DHT22;27703;51.980;5.848;2023-07-29T06:25:08;18.10;99.90
42019;DHT22;27703;51.980;5.848;2023-07-29T06:27:34;18.20;99.90
42019;DHT22;27703;51.980;5.848;2023-07-29T06:29:59;18.30;99.90
42019;DHT22;27703;51.980;5.848;2023-07-29T06:32:25;18.30;99.90
42019;DHT22;27703;51.980;5.848;2023-07-29T06:34:51;18.40;99.90
42019;DHT22;27703;51.980;5.848;2023-07-29T06:37:19;18.60;99.90
42019;DHT22;27703;51.980;5.848;2023-07-29T06:39:44;18.60;99.90
42019;DHT22;27703;51.980;5.848;2023-07-29T06:42:10;18.70;99.90
42019;DHT22;27703;51.980;5.848;2023-07-29T06:44:36;18.70;99.90
42019;DHT22;27703;51.980;5.848;2023-07-29T06:47:01;18.70;99.90
42019;DHT22;27703;51.980;5.848;2023-07-29T06:49:27;18.60;99.90
42019;DHT22;27703;51.980;5.848;2023-07-29T06:51:52;18.70;99.90
42019;DHT22;27703;51.980;5.848;2023-07-29T06:54:18;18.70;99.90
42019;DHT22;27703;51.980;5.848;2023-07-29T06:56:44;18.80;99.90
42019;DHT22;27703;51.980;5.848;2023-07-29T06:59:09;18.80;99.90
42019;DHT22;27703;51.980;5.848;2023-07-29T07:01:35;18.90;99.90
42019;DHT22;27703;51.980;5.848;2023-07-29T07:04:00;18.90;99.90
42019;DHT22;27703;51.980;5.848;2023-07-29T07:06:26;18.90;99.90
42019;DHT22;27703;51.980;5.848;2023-07-29T07:08:51;18.90;99.90
42019;DHT22;27703;51.980;5.848;2023-07-29T07:11:18;18.90;99.90
42019;DHT22;27703;51.980;5.848;2023-07-29T07:13:44;19.00;99.90
42019;DHT22;27703;51.980;5.848;2023-07-29T07:16:09;19.00;99.90
42019;DHT22;27703;51.980;5.848;2023-07-29T07:18:35;19.00;99.90
42019;DHT22;27703;51.980;5.848;2023-07-29T07:21:00;19.00;99.90
42019;DHT22;27703;51.980;5.848;2023-07-29T07:23:26;19.00;99.90
42019;DHT22;27703;51.980;5.848;2023-07-29T07:25:52;19.10;99.90
42019;DHT22;27703;51.980;5.848;2023-07-29T07:28:17;19.10;99.90
42019;DHT22;27703;51.980;5.848;2023-07-29T07:30:43;19.20;99.90
42019;DHT22;27703;51.980;5.848;2023-07-29T07:33:09;19.30;99.90
42019;DHT22;27703;51.980;5.848;2023-07-29T07:35:34;19.20;99.90
42019;DHT22;27703;51.980;5.848;2023-07-29T07:38:00;19.30;99.90
42019;DHT22;27703;51.980;5.848;2023-07-29T07:40:27;19.40;99.90
42019;DHT22;27703;51.980;5.848;2023-07-29T07:42:53;19.40;99.90
42019;DHT22;27703;51.980;5.848;2023-07-29T07:45:20;19.40;99.90
42019;DHT22;27703;51.980;5.848;2023-07-29T07:47:45;19.50;99.90
42019;DHT22;27703;51.980;5.848;2023-07-29T07:50:11;19.50;99.90
42019;DHT22;27703;51.980;5.848;2023-07-29T07:52:37;19.50;99.90
42019;DHT22;27703;51.980;5.848;2023-07-29T07:55:02;19.40;99.90
42019;DHT22;27703;51.980;5.848;2023-07-29T07:57:28;19.40;99.90
42019;DHT22;27703;51.980;5.848;2023-07-29T07:59:54;19.30;99.90
42019;DHT22;27703;51.980;5.848;2023-07-29T08:02:19;19.40;99.90
42019;DHT22;27703;51.980;5.848;2023-07-29T08:04:45;19.40;99.90
42019;DHT22;27703;51.980;5.848;2023-07-29T08:07:11;19.50;99.90
42019;DHT22;27703;51.980;5.848;2023-07-29T08:09:36;19.40;99.90
42019;DHT22;27703;51.980;5.848;2023-07-29T08:12:02;19.40;99.90
42019;DHT22;27703;51.980;5.848;2023-07-29T08:14:28;19.40;99.90
42019;DHT22;27703;51.980;5.848;2023-07-29T08:16:53;19.40;99.90
42019;DHT22;27703;51.980;5.848;2023-07-29T08:19:19;19.40;99.90
42019;DHT22;27703;51.980;5.848;2023-07-29T08:21:44;19.50;99.90
42019;DHT22;27703;51.980;5.848;2023-07-29T08:24:10;19.50;99.90
42019;DHT22;27703;51.980;5.848;2023-07-29T08:26:36;19.60;99.90
42019;DHT22;27703;51.980;5.848;2023-07-29T08:29:01;19.60;99.90
42019;DHT22;27703;51.980;5.848;2023-07-29T08:31:27;19.60;99.90
42019;DHT22;27703;51.980;5.848;2023-07-29T08:33:53;19.60;99.90
42019;DHT22;27703;51.980;5.848;2023-07-29T08:36:19;19.60;99.90
42019;DHT22;27703;51.980;5.848;2023-07-29T08:38:45;19.50;99.90
42019;DHT22;27703;51.980;5.848;2023-07-29T08:43:56;19.50;99.90
42019;DHT22;27703;51.980;5.848;2023-07-29T08:46:25;19.50;99.90
42019;DHT22;27703;51.980;5.848;2023-07-29T08:48:51;19.60;99.90
42019;DHT22;27703;51.980;5.848;2023-07-29T08:51:17;19.70;99.90
42019;DHT22;27703;51.980;5.848;2023-07-29T08:53:45;19.80;99.90
42019;DHT22;27703;51.980;5.848;2023-07-29T08:56:11;20.00;99.90
42019;DHT22;27703;51.980;5.848;2023-07-29T08:58:37;20.10;99.90
42019;DHT22;27703;51.980;5.848;2023-07-29T09:01:05;20.20;99.90
42019;DHT22;27703;51.980;5.848;2023-07-29T09:03:31;20.20;99.90
42019;DHT22;27703;51.980;5.848;2023-07-29T09:05:58;20.10;99.90
42019;DHT22;27703;51.980;5.848;2023-07-29T09:08:26;20.10;99.90
42019;DHT22;27703;51.980;5.848;2023-07-29T09:10:52;20.10;99.90
42019;DHT22;27703;51.980;5.848;2023-07-29T09:13:19;20.10;99.90
42019;DHT22;27703;51.980;5.848;2023-07-29T09:15:45;20.10;99.90
42019;DHT22;27703;51.980;5.848;2023-07-29T09:18:15;20.10;99.90
42019;DHT22;27703;51.980;5.848;2023-07-29T09:20:41;20.10;99.90
42019;DHT22;27703;51.980;5.848;2023-07-29T09:23:08;20.00;99.90
42019;DHT22;27703;51.980;5.848;2023-07-29T09:25:35;20.00;99.90
42019;DHT22;27703;51.980;5.848;2023-07-29T09:28:08;20.00;99.90
42019;DHT22;27703;51.980;5.848;2023-07-29T09:30:35;20.10;99.90
42019;DHT22;27703;51.980;5.848;2023-07-29T09:33:00;20.10;99.90
42019;DHT22;27703;51.980;5.848;2023-07-29T09:35:29;20.20;99.90
42019;DHT22;27703;51.980;5.848;2023-07-29T09:37:55;20.40;99.90
42019;DHT22;27703;51.980;5.848;2023-07-29T09:40:21;20.60;99.90
42019;DHT22;27703;51.980;5.848;2023-07-29T09:42:50;20.70;99.90
42019;DHT22;27703;51.980;5.848;2023-07-29T09:45:24;21.00;99.90
42019;DHT22;27703;51.980;5.848;2023-07-29T09:47:51;21.10;99.90
42019;DHT22;27703;51.980;5.848;2023-07-29T09:50:17;21.30;99.90
42019;DHT22;27703;51.980;5.848;2023-07-29T09:52:43;21.50;99.90
42019;DHT22;27703;51.980;5.848;2023-07-29T09:55:12;21.70;99.90
42019;DHT22;27703;51.980;5.848;2023-07-29T09:57:39;21.70;99.90
42019;DHT22;27703;51.980;5.848;2023-07-29T10:00:06;21.90;99.90
42019;DHT22;27703;51.980;5.848;2023-07-29T10:02:40;22.20;99.90
42019;DHT22;27703;51.980;5.848;2023-07-29T10:05:07;22.10;99.90
42019;DHT22;27703;51.980;5.848;2023-07-29T10:07:34;21.90;99.90
42019;DHT22;27703;51.980;5.848;2023-07-29T10:10:03;21.80;99.90
42019;DHT22;27703;51.980;5.848;2023-07-29T10:12:30;21.80;99.90
42019;DHT22;27703;51.980;5.848;2023-07-29T10:14:59;21.80;99.90
42019;DHT22;27703;51.980;5.848;2023-07-29T10:17:26;21.90;99.90
42019;DHT22;27703;51.980;5.848;2023-07-29T10:19:52;22.00;99.90
42019;DHT22;27703;51.980;5.848;2023-07-29T10:22:20;22.30;99.90
42019;DHT22;27703;51.980;5.848;2023-07-29T10:24:47;22.40;99.90
42019;DHT22;27703;51.980;5.848;2023-07-29T10:27:18;22.30;99.90
42019;DHT22;27703;51.980;5.848;2023-07-29T10:29:45;22.20;99.90
42019;DHT22;27703;51.980;5.848;2023-07-29T10:32:11;22.30;99.90
42019;DHT22;27703;51.980;5.848;2023-07-29T10:34:37;22.60;99.90
42019;DHT22;27703;51.980;5.848;2023-07-29T10:37:04;22.70;99.90
42019;DHT22;27703;51.980;5.848;2023-07-29T10:39:40;22.70;99.90
42019;DHT22;27703;51.980;5.848;2023-07-29T10:42:07;22.60;99.90
42019;DHT22;27703;51.980;5.848;2023-07-29T10:47:22;22.40;99.90
42019;DHT22;27703;51.980;5.848;2023-07-29T10:49:54;22.20;99.90
42019;DHT22;27703;51.980;5.848;2023-07-29T10:52:43;22.10;99.90
42019;DHT22;27703;51.980;5.848;2023-07-29T10:55:27;22.00;99.90
42019;DHT22;27703;51.980;5.848;2023-07-29T10:58:08;21.90;99.90
42019;DHT22;27703;51.980;5.848;2023-07-29T11:00:34;21.90;99.90
42019;DHT22;27703;51.980;5.848;2023-07-29T11:03:10;21.90;99.90
42019;DHT22;27703;51.980;5.848;2023-07-29T11:05:52;22.00;99.90
42019;DHT22;27703;51.980;5.848;2023-07-29T11:08:27;21.90;99.90
42019;DHT22;27703;51.980;5.848;2023-07-29T11:11:07;22.00;99.90
42019;DHT22;27703;51.980;5.848;2023-07-29T11:13:35;22.00;99.90
42019;DHT22;27703;51.980;5.848;2023-07-29T11:16:01;21.90;99.90
42019;DHT22;27703;51.980;5.848;2023-07-29T11:18:29;21.90;99.90
42019;DHT22;27703;51.980;5.848;2023-07-29T11:20:55;21.80;99.90
42019;DHT22;27703;51.980;5.848;2023-07-29T11:23:30;21.80;99.90
42019;DHT22;27703;51.980;5.848;2023-07-29T11:25:57;21.70;99.90
42019;DHT22;27703;51.980;5.848;2023-07-29T11:28:23;21.60;99.90
42019;DHT22;27703;51.980;5.848;2023-07-29T11:30:50;21.50;99.90
42019;DHT22;27703;51.980;5.848;2023-07-29T11:33:21;21.50;99.90
42019;DHT22;27703;51.980;5.848;2023-07-29T11:35:47;21.40;99.90
42019;DHT22;27703;51.980;5.848;2023-07-29T11:38:17;21.40;99.90
42019;DHT22;27703;51.980;5.848;2023-07-29T11:40:43;21.40;99.90
42019;DHT22;27703;51.980;5.848;2023-07-29T11:43:08;21.40;99.90
42019;DHT22;27703;51.980;5.848;2023-07-29T11:45:34;21.30;99.90
42019;DHT22;27703;51.980;5.848;2023-07-29T11:48:01;21.40;99.90
42019;DHT22;27703;51.980;5.848;2023-07-29T11:50:27;21.30;99.90
42019;DHT22;27703;51.980;5.848;2023-07-29T11:52:53;21.30;99.90
42019;DHT22;27703;51.980;5.848;2023-07-29T11:55:19;21.10;99.90
42019;DHT22;27703;51.980;5.848;2023-07-29T11:57:51;21.00;99.90
42019;DHT22;27703;51.980;5.848;2023-07-29T12:00:17;20.80;99.90
42019;DHT22;27703;51.980;5.848;2023-07-29T12:02:45;20.50;99.90
42019;DHT22;27703;51.980;5.848;2023-07-29T12:05:13;20.30;99.90
42019;DHT22;27703;51.980;5.848;2023-07-29T12:07:39;20.10;99.90
42019;DHT22;27703;51.980;5.848;2023-07-29T12:10:05;19.90;99.90
42019;DHT22;27703;51.980;5.848;2023-07-29T12:12:31;19.80;99.90
42019;DHT22;27703;51.980;5.848;2023-07-29T12:14:57;19.60;99.90
42019;DHT22;27703;51.980;5.848;2023-07-29T12:17:23;19.50;99.90
42019;DHT22;27703;51.980;5.848;2023-07-29T12:19:48;19.50;99.90
42019;DHT22;27703;51.980;5.848;2023-07-29T12:22:19;19.50;99.90
42019;DHT22;27703;51.980;5.848;2023-07-29T12:24:45;19.60;99.90
42019;DHT22;27703;51.980;5.848;2023-07-29T12:27:14;19.60;99.90
42019;DHT22;27703;51.980;5.848;2023-07-29T12:29:42;19.70;99.90
42019;DHT22;27703;51.980;5.848;2023-07-29T12:32:08;19.70;99.90
42019;DHT22;27703;51.980;5.848;2023-07-29T12:34:35;19.70;99.90
42019;DHT22;27703;51.980;5.848;2023-07-29T12:37:02;19.70;99.90
42019;DHT22;27703;51.980;5.848;2023-07-29T12:39:29;19.70;99.90
42019;DHT22;27703;51.980;5.848;2023-07-29T12:41:57;19.70;99.90
42019;DHT22;27703;51.980;5.848;2023-07-29T12:44:24;19.70;99.90
42019;DHT22;27703;51.980;5.848;2023-07-29T12:46:50;19.70;99.90
42019;DHT22;27703;51.980;5.848;2023-07-29T12:49:16;19.80;99.90
42019;DHT22;27703;51.980;5.848;2023-07-29T12:51:41;19.90;99.90
42019;DHT22;27703;51.980;5.848;2023-07-29T12:54:07;19.90;99.90
42019;DHT22;27703;51.980;5.848;2023-07-29T12:56:33;20.00;99.90
42019;DHT22;27703;51.980;5.848;2023-07-29T12:59:00;20.10;99.90
42019;DHT22;27703;51.980;5.848;2023-07-29T13:01:26;20.20;99.90
42019;DHT22;27703;51.980;5.848;2023-07-29T13:03:52;20.30;99.90
42019;DHT22;27703;51.980;5.848;2023-07-29T13:06:19;20.30;99.90
42019;DHT22;27703;51.980;5.848;2023-07-29T13:08:46;20.40;99.90
42019;DHT22;27703;51.980;5.848;2023-07-29T13:11:12;20.50;99.90
42019;DHT22;27703;51.980;5.848;2023-07-29T13:13:37;20.60;99.90
42019;DHT22;27703;51.980;5.848;2023-07-29T13:16:03;20.70;99.90
42019;DHT22;27703;51.980;5.848;2023-07-29T13:18:29;20.80;99.90
42019;DHT22;27703;51.980;5.848;2023-07-29T13:20:54;20.80;99.90
42019;DHT22;27703;51.980;5.848;2023-07-29T13:23:20;20.80;99.90
42019;DHT22;27703;51.980;5.848;2023-07-29T13:25:46;20.80;99.90
42019;DHT22;27703;51.980;5.848;2023-07-29T13:28:12;20.80;99.90
42019;DHT22;27703;51.980;5.848;2023-07-29T13:30:39;20.80;99.90
42019;DHT22;27703;51.980;5.848;2023-07-29T13:33:06;20.70;99.90
42019;DHT22;27703;51.980;5.848;2023-07-29T13:35:31;20.70;99.90
42019;DHT22;27703;51.980;5.848;2023-07-29T13:37:57;20.60;99.90
42019;DHT22;27703;51.980;5.848;2023-07-29T13:40:22;20.70;99.90
42019;DHT22;27703;51.980;5.848;2023-07-29T13:42:48;20.80;99.90
42019;DHT22;27703;51.980;5.848;2023-07-29T13:45:14;20.80;99.90
42019;DHT22;27703;51.980;5.848;2023-07-29T13:47:39;21.00;99.90
42019;DHT22;27703;51.980;5.848;2023-07-29T13:50:05;21.00;99.90
42019;DHT22;27703;51.980;5.848;2023-07-29T13:52:33;21.00;99.90
42019;DHT22;27703;51.980;5.848;2023-07-29T13:54:58;21.00;99.90
42019;DHT22;27703;51.980;5.848;2023-07-29T13:57:24;21.10;99.90
42019;DHT22;27703;51.980;5.848;2023-07-29T13:59:49;21.20;99.90
42019;DHT22;27703;51.980;5.848;2023-07-29T14:02:15;21.30;99.90
42019;DHT22;27703;51.980;5.848;2023-07-29T14:04:41;21.40;99.90
42019;DHT22;27703;51.980;5.848;2023-07-29T14:07:06;21.40;99.90
42019;DHT22;27703;51.980;5.848;2023-07-29T14:09:32;21.40;99.90
42019;DHT22;27703;51.980;5.848;2023-07-29T14:11:57;21.50;99.90
42019;DHT22;27703;51.980;5.848;2023-07-29T14:14:23;21.40;99.90
42019;DHT22;27703;51.980;5.848;2023-07-29T14:16:49;21.40;99.90
42019;DHT22;27703;51.980;5.848;2023-07-29T14:19:14;21.30;99.90
42019;DHT22;27703;51.980;5.848;2023-07-29T14:21:40;21.30;99.90
42019;DHT22;27703;51.980;5.848;2023-07-29T14:24:06;21.40;99.90
42019;DHT22;27703;51.980;5.848;2023-07-29T14:26:31;21.60;99.90
42019;DHT22;27703;51.980;5.848;2023-07-29T14:28:57;21.90;99.90
42019;DHT22;27703;51.980;5.848;2023-07-29T14:31:23;22.20;99.90
42019;DHT22;27703;51.980;5.848;2023-07-29T14:33:48;22.30;99.90
42019;DHT22;27703;51.980;5.848;2023-07-29T14:36:17;22.40;99.90
42019;DHT22;27703;51.980;5.848;2023-07-29T14:38:42;22.40;99.90
42019;DHT22;27703;51.980;5.848;2023-07-29T14:41:08;22.40;99.90
42019;DHT22;27703;51.980;5.848;2023-07-29T14:43:34;22.40;99.90
42019;DHT22;27703;51.980;5.848;2023-07-29T14:46:00;22.40;99.90
42019;DHT22;27703;51.980;5.848;2023-07-29T14:48:26;22.50;99.90
42019;DHT22;27703;51.980;5.848;2023-07-29T14:50:52;22.70;99.90
42019;DHT22;27703;51.980;5.848;2023-07-29T14:53:18;22.90;99.90
42019;DHT22;27703;51.980;5.848;2023-07-29T14:55:43;23.00;99.90
42019;DHT22;27703;51.980;5.848;2023-07-29T14:58:09;23.20;99.90
42019;DHT22;27703;51.980;5.848;2023-07-29T15:00:34;23.30;99.90
42019;DHT22;27703;51.980;5.848;2023-07-29T15:03:00;23.20;99.90
42019;DHT22;27703;51.980;5.848;2023-07-29T15:05:26;23.00;99.90
42019;DHT22;27703;51.980;5.848;2023-07-29T15:07:51;22.80;99.90
42019;DHT22;27703;51.980;5.848;2023-07-29T15:10:17;22.70;99.90
42019;DHT22;27703;51.980;5.848;2023-07-29T15:12:44;22.50;99.90
42019;DHT22;27703;51.980;5.848;2023-07-29T15:15:10;22.30;99.90
42019;DHT22;27703;51.980;5.848;2023-07-29T15:17:36;22.20;99.90
42019;DHT22;27703;51.980;5.848;2023-07-29T15:20:02;22.10;99.90
42019;DHT22;27703;51.980;5.848;2023-07-29T15:22:29;22.10;99.90
42019;DHT22;27703;51.980;5.848;2023-07-29T15:24:55;22.10;99.90
42019;DHT22;27703;51.980;5.848;2023-07-29T15:27:20;22.10;99.90
42019;DHT22;27703;51.980;5.848;2023-07-29T15:29:47;22.20;99.90
42019;DHT22;27703;51.980;5.848;2023-07-29T15:32:13;22.30;99.90
42019;DHT22;27703;51.980;5.848;2023-07-29T15:34:38;22.40;99.90
42019;DHT22;27703;51.980;5.848;2023-07-29T15:37:04;22.30;99.90